createdAt,value
2017-12-20T00:01:03.168Z,4.61
2017-12-20T00:03:30.757Z,4.61
2017-12-20T00:05:58.416Z,4.57
2017-12-20T00:08:26.013Z,4.57
2017-12-20T00:10:53.604Z,4.58
2017-12-20T00:13:21.224Z,4.57
2017-12-20T00:15:48.892Z,4.53
2017-12-20T00:18:16.512Z,4.50
2017-12-20T00:20:44.087Z,4.51
2017-12-20T00:23:11.697Z,4.50
2017-12-20T00:25:39.309Z,4.50
2017-12-20T00:28:06.901Z,4.52
2017-12-20T00:30:34.528Z,4.52
2017-12-20T00:33:02.131Z,4.52
2017-12-20T00:35:29.759Z,4.52
2017-12-20T00:37:57.376Z,4.49
2017-12-20T00:40:24.967Z,4.46
2017-12-20T00:42:52.631Z,4.38
2017-12-20T00:45:20.217Z,4.29
2017-12-20T00:47:47.812Z,4.25
2017-12-20T00:50:15.437Z,4.16
2017-12-20T00:52:43.033Z,4.22
2017-12-20T00:55:10.660Z,4.20
2017-12-20T00:57:38.263Z,4.19
2017-12-20T01:00:05.849Z,4.26
2017-12-20T01:02:33.484Z,4.29
2017-12-20T01:05:01.086Z,4.33
2017-12-20T01:07:28.775Z,4.36
2017-12-20T01:09:56.409Z,4.34
2017-12-20T01:12:24.006Z,4.30
2017-12-20T01:14:51.612Z,4.04
2017-12-20T01:17:19.225Z,4.04
2017-12-20T01:19:46.849Z,4.13
2017-12-20T01:22:14.456Z,4.10
2017-12-20T01:24:42.045Z,4.10
2017-12-20T01:27:09.953Z,4.10
2017-12-20T01:29:37.532Z,4.07
2017-12-20T01:32:05.164Z,4.11
2017-12-20T01:34:32.764Z,4.11
2017-12-20T01:37:00.354Z,4.06
2017-12-20T01:39:27.980Z,4.07
2017-12-20T01:41:55.574Z,4.09
2017-12-20T01:44:23.206Z,4.13
2017-12-20T01:46:50.884Z,3.95
2017-12-20T01:49:18.504Z,3.87
2017-12-20T01:51:46.152Z,3.82
2017-12-20T01:54:13.757Z,3.91
2017-12-20T01:56:41.396Z,3.99
2017-12-20T01:59:08.990Z,3.98
2017-12-20T02:01:36.582Z,3.90
2017-12-20T02:04:04.485Z,3.87
2017-12-20T02:06:32.355Z,3.94
2017-12-20T02:09:00.627Z,3.89
2017-12-20T02:11:28.220Z,3.92
2017-12-20T02:13:55.815Z,3.89
2017-12-20T02:16:23.520Z,3.96
2017-12-20T02:18:51.115Z,4.00
2017-12-20T02:21:18.847Z,4.02
2017-12-20T02:23:46.482Z,4.02
2017-12-20T02:26:14.076Z,3.98
2017-12-20T02:28:41.700Z,4.04
2017-12-20T02:31:09.320Z,3.97
2017-12-20T02:33:36.959Z,3.98
2017-12-20T02:36:04.588Z,4.05
2017-12-20T02:38:39.125Z,4.04
2017-12-20T02:41:09.500Z,4.07
2017-12-20T02:43:42.032Z,4.05
2017-12-20T02:46:09.726Z,4.10
2017-12-20T02:48:37.332Z,4.13
2017-12-20T02:51:04.980Z,4.13
2017-12-20T02:53:32.577Z,4.11
2017-12-20T02:56:00.232Z,4.02
2017-12-20T02:58:28.123Z,4.05
2017-12-20T03:00:55.718Z,4.04
2017-12-20T03:03:23.381Z,4.06
2017-12-20T03:05:50.982Z,3.93
2017-12-20T03:08:18.636Z,3.89
2017-12-20T03:10:46.311Z,3.94
2017-12-20T03:13:13.905Z,3.89
2017-12-20T03:15:41.517Z,3.92
2017-12-20T03:18:09.104Z,3.85
2017-12-20T03:20:37.096Z,3.80
2017-12-20T03:23:04.691Z,3.71
2017-12-20T03:25:32.299Z,3.67
2017-12-20T03:27:59.928Z,3.71
2017-12-20T03:30:27.558Z,3.68
2017-12-20T03:32:55.205Z,3.70
2017-12-20T03:35:22.796Z,3.58
2017-12-20T03:37:50.408Z,3.64
2017-12-20T03:40:18.296Z,3.60
2017-12-20T03:42:45.899Z,3.61
2017-12-20T03:45:13.828Z,3.61
2017-12-20T03:47:41.409Z,3.56
2017-12-20T03:50:08.990Z,3.62
2017-12-20T03:52:36.615Z,3.73
2017-12-20T03:55:04.208Z,3.74
2017-12-20T03:57:31.832Z,3.71
2017-12-20T03:59:59.411Z,3.75
2017-12-20T04:02:27.044Z,3.82
2017-12-20T04:04:54.692Z,3.75
2017-12-20T04:07:22.315Z,3.80
2017-12-20T04:09:49.927Z,3.86
2017-12-20T04:12:17.534Z,3.93
2017-12-20T04:14:45.128Z,3.91
2017-12-20T04:17:12.748Z,3.87
2017-12-20T04:19:40.318Z,3.92
2017-12-20T04:22:07.935Z,3.78
2017-12-20T04:24:35.783Z,3.81
2017-12-20T04:27:03.369Z,3.79
2017-12-20T04:29:30.993Z,3.81
2017-12-20T04:31:58.585Z,3.78
2017-12-20T04:34:26.273Z,3.83
2017-12-20T04:36:53.870Z,3.89
2017-12-20T04:39:21.468Z,3.84
2017-12-20T04:41:49.166Z,3.74
2017-12-20T04:44:17.748Z,3.77
2017-12-20T04:46:45.372Z,3.83
2017-12-20T04:49:12.965Z,3.88
2017-12-20T04:51:40.846Z,3.94
2017-12-20T04:54:08.864Z,3.93
2017-12-20T04:56:36.498Z,3.92
2017-12-20T04:59:04.129Z,3.93
2017-12-20T05:01:31.732Z,3.88
2017-12-20T05:03:59.563Z,3.74
2017-12-20T05:06:27.173Z,3.76
2017-12-20T05:08:54.836Z,3.82
2017-12-20T05:11:22.475Z,3.88
2017-12-20T05:13:50.417Z,3.87
2017-12-20T05:16:18.389Z,3.79
2017-12-20T05:18:46.012Z,3.82
2017-12-20T05:21:13.595Z,3.79
2017-12-20T05:23:41.218Z,3.80
2017-12-20T05:26:09.172Z,3.87
2017-12-20T05:28:37.116Z,3.95
2017-12-20T05:31:04.735Z,3.98
2017-12-20T05:33:32.328Z,3.95
2017-12-20T05:35:59.992Z,3.99
2017-12-20T05:38:27.581Z,4.03
2017-12-20T05:40:55.168Z,4.07
2017-12-20T05:43:22.832Z,4.13
2017-12-20T05:45:50.425Z,4.19
2017-12-20T05:48:18.059Z,4.20
2017-12-20T05:50:45.648Z,4.13
2017-12-20T05:53:13.547Z,4.08
2017-12-20T05:55:41.156Z,4.10
2017-12-20T05:58:08.735Z,4.12
2017-12-20T06:00:37.198Z,4.15
2017-12-20T06:03:05.118Z,4.04
2017-12-20T06:05:32.696Z,4.08
2017-12-20T06:08:00.646Z,4.13
2017-12-20T06:10:28.223Z,4.12
2017-12-20T06:12:56.278Z,4.12
2017-12-20T06:15:23.849Z,4.16
2017-12-20T06:17:51.443Z,4.19
2017-12-20T06:20:19.060Z,4.24
2017-12-20T06:22:46.940Z,4.34
2017-12-20T06:25:14.555Z,4.29
2017-12-20T06:27:42.133Z,4.26
2017-12-20T06:30:09.724Z,4.27
2017-12-20T06:32:37.327Z,4.30
2017-12-20T06:35:04.912Z,4.31
2017-12-20T06:37:32.805Z,4.30
2017-12-20T06:40:00.398Z,4.35
2017-12-20T06:42:27.998Z,4.35
2017-12-20T06:44:55.730Z,4.36
2017-12-20T06:47:23.700Z,4.35
2017-12-20T06:49:51.324Z,4.34
2017-12-20T06:52:18.994Z,4.34
2017-12-20T06:54:46.600Z,4.30
2017-12-20T06:57:14.236Z,4.29
2017-12-20T06:59:41.845Z,4.28
2017-12-20T07:02:09.440Z,4.32
2017-12-20T07:04:37.414Z,4.36
2017-12-20T07:07:05.013Z,4.33
2017-12-20T07:09:32.613Z,4.32
2017-12-20T07:12:00.501Z,4.30
2017-12-20T07:14:28.104Z,4.30
2017-12-20T07:16:55.763Z,4.38
2017-12-20T07:19:23.393Z,4.33
2017-12-20T07:21:51.009Z,4.36
2017-12-20T07:24:18.632Z,4.38
2017-12-20T07:26:46.229Z,4.34
2017-12-20T07:29:14.145Z,4.33
2017-12-20T07:31:41.725Z,4.35
2017-12-20T07:34:09.313Z,4.37
2017-12-20T07:36:37.153Z,4.36
2017-12-20T07:39:04.745Z,4.31
2017-12-20T07:41:32.397Z,4.32
2017-12-20T07:44:00.037Z,4.30
2017-12-20T07:46:27.628Z,4.24
2017-12-20T07:48:55.229Z,4.30
2017-12-20T07:51:22.891Z,4.13
2017-12-20T07:53:50.512Z,4.23
2017-12-20T07:56:18.419Z,4.28
2017-12-20T07:58:46.079Z,4.27
2017-12-20T08:01:13.682Z,4.33
2017-12-20T08:03:41.304Z,4.38
2017-12-20T08:06:08.945Z,4.44
2017-12-20T08:08:36.524Z,4.48
2017-12-20T08:11:04.113Z,4.48
2017-12-20T08:13:31.979Z,4.55
2017-12-20T08:15:59.572Z,4.42
2017-12-20T08:18:27.424Z,4.46
2017-12-20T08:20:55.274Z,4.50
2017-12-20T08:23:23.109Z,4.57
2017-12-20T08:25:50.719Z,4.58
2017-12-20T08:28:18.306Z,4.56
2017-12-20T08:30:46.028Z,4.55
2017-12-20T08:33:13.616Z,4.57
2017-12-20T08:35:41.456Z,4.54
2017-12-20T08:38:09.325Z,4.63
2017-12-20T08:40:37.080Z,4.62
2017-12-20T08:43:04.704Z,4.71
2017-12-20T08:45:32.293Z,4.80
2017-12-20T08:47:59.916Z,4.86
2017-12-20T08:50:27.603Z,4.76
2017-12-20T08:52:58.265Z,4.67
2017-12-20T08:55:25.993Z,4.68
2017-12-20T08:57:53.957Z,4.71
2017-12-20T09:00:21.536Z,4.39
2017-12-20T09:02:49.285Z,4.41
2017-12-20T09:05:16.924Z,4.46
2017-12-20T09:07:44.542Z,4.52
2017-12-20T09:10:12.425Z,4.60
2017-12-20T09:12:40.040Z,4.59
2017-12-20T09:15:07.957Z,4.45
2017-12-20T09:17:35.550Z,4.56
2017-12-20T09:20:03.215Z,4.62
2017-12-20T09:22:30.792Z,4.16
2017-12-20T09:24:58.384Z,4.09
2017-12-20T09:27:25.999Z,4.02
2017-12-20T09:29:53.707Z,4.05
2017-12-20T09:32:21.336Z,4.08
2017-12-20T09:34:48.922Z,4.17
2017-12-20T09:37:16.548Z,4.22
2017-12-20T09:39:44.490Z,4.32
2017-12-20T09:42:12.154Z,4.40
2017-12-20T09:44:39.781Z,4.26
2017-12-20T09:47:07.604Z,4.05
2017-12-20T09:49:35.182Z,4.07
2017-12-20T09:52:02.826Z,4.03
2017-12-20T09:54:30.432Z,4.11
2017-12-20T09:56:58.477Z,4.18
2017-12-20T09:59:26.120Z,4.19
2017-12-20T10:01:54.816Z,4.15
2017-12-20T10:04:22.465Z,4.37
2017-12-20T10:06:50.089Z,4.53
2017-12-20T10:09:17.728Z,4.56
2017-12-20T10:11:45.351Z,4.60
2017-12-20T10:14:13.010Z,4.41
2017-12-20T10:16:40.670Z,4.45
2017-12-20T10:19:08.270Z,4.34
2017-12-20T10:21:35.900Z,4.44
2017-12-20T10:24:03.488Z,4.52
2017-12-20T10:26:31.114Z,4.59
2017-12-20T10:28:58.776Z,4.64
2017-12-20T10:31:26.759Z,4.40
2017-12-20T10:33:54.714Z,4.42
2017-12-20T10:36:22.581Z,4.20
2017-12-20T10:38:50.448Z,4.41
2017-12-20T10:41:18.220Z,4.58
2017-12-20T10:43:45.792Z,4.55
2017-12-20T10:46:13.417Z,4.46
2017-12-20T10:48:40.995Z,4.45
2017-12-20T10:51:08.594Z,4.63
2017-12-20T10:53:36.214Z,4.74
2017-12-20T10:56:04.100Z,4.79
2017-12-20T10:58:31.730Z,4.68
2017-12-20T11:00:59.312Z,4.90
2017-12-20T11:03:26.900Z,5.11
2017-12-20T11:05:54.504Z,4.86
2017-12-20T11:08:22.103Z,4.84
2017-12-20T11:10:49.733Z,5.13
2017-12-20T11:13:17.324Z,5.21
2017-12-20T11:15:44.908Z,5.48
2017-12-20T11:18:12.532Z,5.42
2017-12-20T11:20:40.132Z,5.59
2017-12-20T11:23:07.753Z,5.48
2017-12-20T11:25:35.332Z,5.29
2017-12-20T11:28:02.971Z,5.34
2017-12-20T11:30:30.576Z,5.06
2017-12-20T11:32:58.173Z,5.13
2017-12-20T11:35:26.084Z,5.01
2017-12-20T11:37:53.664Z,5.00
2017-12-20T11:40:21.260Z,4.94
2017-12-20T11:42:48.870Z,4.72
2017-12-20T11:45:16.475Z,4.81
2017-12-20T11:47:44.089Z,4.93
2017-12-20T11:50:11.669Z,4.97
2017-12-20T11:52:39.265Z,5.01
2017-12-20T11:55:06.868Z,4.96
2017-12-20T11:57:34.440Z,4.89
2017-12-20T12:00:02.068Z,4.94
2017-12-20T12:02:29.652Z,4.78
2017-12-20T12:04:57.258Z,4.83
2017-12-20T12:07:24.964Z,4.82
2017-12-20T12:09:52.561Z,4.63
2017-12-20T12:12:20.184Z,4.65
2017-12-20T12:14:48.090Z,4.62
2017-12-20T12:17:15.681Z,4.70
2017-12-20T12:19:43.290Z,4.70
2017-12-20T12:22:10.888Z,4.76
2017-12-20T12:24:38.529Z,4.68
2017-12-20T12:27:06.364Z,4.63
2017-12-20T12:29:33.946Z,4.52
2017-12-20T12:32:01.559Z,4.47
2017-12-20T12:34:29.158Z,4.57
2017-12-20T12:36:56.820Z,4.63
2017-12-20T12:39:24.405Z,4.69
2017-12-20T12:41:51.998Z,4.73
2017-12-20T12:44:19.944Z,4.76
2017-12-20T12:46:47.591Z,4.80
2017-12-20T12:49:15.217Z,4.70
2017-12-20T12:51:42.792Z,4.80
2017-12-20T12:54:10.394Z,4.85
2017-12-20T12:56:38.009Z,4.90
2017-12-20T12:59:05.598Z,4.82
2017-12-20T13:01:33.228Z,4.73
2017-12-20T13:04:00.817Z,4.73
2017-12-20T13:06:28.412Z,4.68
2017-12-20T13:08:56.020Z,4.75
2017-12-20T13:11:23.632Z,4.78
2017-12-20T13:13:51.271Z,4.76
2017-12-20T13:16:19.149Z,4.80
2017-12-20T13:18:46.745Z,4.81
2017-12-20T13:21:14.364Z,4.83
2017-12-20T13:23:41.967Z,4.62
2017-12-20T13:26:09.899Z,4.61
2017-12-20T13:28:37.500Z,4.51
2017-12-20T13:31:05.089Z,4.45
2017-12-20T13:33:32.719Z,4.50
2017-12-20T13:36:00.556Z,4.53
2017-12-20T13:38:28.181Z,4.59
2017-12-20T13:40:55.814Z,4.59
2017-12-20T13:43:23.401Z,4.57
2017-12-20T13:45:51.016Z,4.58
2017-12-20T13:48:18.620Z,4.54
2017-12-20T13:50:46.252Z,4.48
2017-12-20T13:53:14.098Z,4.48
2017-12-20T13:55:41.706Z,4.51
2017-12-20T13:58:09.321Z,4.56
2017-12-20T14:00:37.187Z,4.51
2017-12-20T14:03:04.834Z,4.53
2017-12-20T14:05:32.430Z,4.50
2017-12-20T14:08:00.029Z,4.35
2017-12-20T14:10:27.660Z,4.32
2017-12-20T14:12:55.248Z,4.32
2017-12-20T14:15:22.848Z,4.33
2017-12-20T14:17:50.461Z,4.36
2017-12-20T14:20:18.080Z,4.41
2017-12-20T14:22:45.680Z,4.42
2017-12-20T14:25:13.320Z,4.36
2017-12-20T14:27:41.184Z,4.34
2017-12-20T14:30:08.766Z,4.30
2017-12-20T14:32:36.712Z,4.37
2017-12-20T14:35:04.314Z,4.26
2017-12-20T14:37:31.953Z,4.29
2017-12-20T14:39:59.555Z,4.22
2017-12-20T14:42:27.157Z,4.28
2017-12-20T14:44:54.764Z,4.36
2017-12-20T14:47:23.294Z,4.43
2017-12-20T14:49:51.275Z,4.37
2017-12-20T14:52:18.856Z,4.28
2017-12-20T14:54:46.445Z,4.22
2017-12-20T14:57:14.372Z,4.13
2017-12-20T14:59:42.009Z,4.17
2017-12-20T15:02:09.634Z,4.23
2017-12-20T15:04:37.228Z,4.19
2017-12-20T15:07:04.816Z,4.18
2017-12-20T15:09:32.424Z,4.15
2017-12-20T15:12:00.345Z,4.22
2017-12-20T15:14:27.979Z,4.26
2017-12-20T15:16:55.564Z,4.26
2017-12-20T15:19:23.144Z,4.23
2017-12-20T15:21:50.760Z,4.29
2017-12-20T15:24:18.365Z,4.31
2017-12-20T15:26:46.317Z,4.23
2017-12-20T15:29:14.184Z,4.28
2017-12-20T15:31:41.764Z,4.37
2017-12-20T15:34:10.013Z,4.43
2017-12-20T15:36:37.620Z,4.45
2017-12-20T15:39:05.248Z,4.32
2017-12-20T15:41:33.124Z,4.44
2017-12-20T15:44:00.758Z,4.44
2017-12-20T15:46:28.371Z,4.48
2017-12-20T15:48:56.226Z,4.46
2017-12-20T15:51:24.176Z,4.53
2017-12-20T15:53:51.777Z,4.59
2017-12-20T15:56:19.378Z,4.64
2017-12-20T15:58:46.989Z,4.68
2017-12-20T16:01:14.583Z,4.76
2017-12-20T16:03:42.245Z,4.76
2017-12-20T16:06:09.833Z,4.73
2017-12-20T16:08:37.443Z,4.67
2017-12-20T16:11:05.058Z,4.65
2017-12-20T16:13:32.644Z,4.67
2017-12-20T16:16:00.337Z,4.64
2017-12-20T16:18:27.949Z,4.64
2017-12-20T16:20:55.832Z,4.68
2017-12-20T16:23:23.462Z,4.71
2017-12-20T16:25:51.040Z,4.71
2017-12-20T16:28:18.681Z,4.62
2017-12-20T16:30:46.273Z,4.67
2017-12-20T16:33:13.876Z,4.64
2017-12-20T16:35:41.909Z,4.62
2017-12-20T16:38:09.526Z,4.52
2017-12-20T16:40:37.737Z,4.50
2017-12-20T16:43:05.617Z,4.54
2017-12-20T16:45:33.244Z,4.50
2017-12-20T16:48:01.028Z,4.56
2017-12-20T16:50:28.667Z,4.48
2017-12-20T16:52:56.774Z,4.50
2017-12-20T16:55:24.397Z,4.51
2017-12-20T16:57:52.316Z,4.51
2017-12-20T17:00:19.928Z,4.47
2017-12-20T17:02:47.543Z,4.48
2017-12-20T17:05:15.509Z,4.48
2017-12-20T17:07:43.095Z,4.56
2017-12-20T17:10:10.679Z,4.57
2017-12-20T17:12:38.320Z,4.55
2017-12-20T17:15:06.266Z,4.61
2017-12-20T17:17:33.905Z,4.57
2017-12-20T17:20:01.528Z,4.64
2017-12-20T17:22:29.128Z,4.70
2017-12-20T17:24:56.750Z,4.66
2017-12-20T17:27:24.332Z,4.72
2017-12-20T17:29:51.993Z,4.78
2017-12-20T17:32:19.843Z,4.72
2017-12-20T17:34:47.775Z,4.64
2017-12-20T17:37:15.390Z,4.65
2017-12-20T17:39:43.009Z,4.68
2017-12-20T17:42:11.325Z,4.72
2017-12-20T17:44:38.963Z,4.73
2017-12-20T17:47:06.876Z,4.75
2017-12-20T17:49:34.536Z,4.75
2017-12-20T17:52:02.181Z,4.76
2017-12-20T17:54:29.961Z,4.80
2017-12-20T17:56:57.572Z,4.82
2017-12-20T17:59:25.428Z,4.81
2017-12-20T18:01:53.048Z,4.73
2017-12-20T18:04:20.655Z,4.73
2017-12-20T18:06:48.331Z,4.75
2017-12-20T18:09:15.955Z,4.73
2017-12-20T18:11:43.950Z,4.69
2017-12-20T18:14:11.583Z,4.74
2017-12-20T18:16:39.190Z,4.81
2017-12-20T18:19:06.835Z,4.81
2017-12-20T18:21:34.460Z,4.78
2017-12-20T18:24:02.076Z,4.77
2017-12-20T18:26:29.732Z,4.81
2017-12-20T18:28:57.380Z,4.80
2017-12-20T18:31:25.044Z,4.82
2017-12-20T18:33:52.631Z,4.85
2017-12-20T18:36:20.471Z,4.84
2017-12-20T18:38:48.114Z,4.82
2017-12-20T18:41:15.716Z,4.87
2017-12-20T18:43:43.381Z,4.81
2017-12-20T18:46:10.985Z,4.83
2017-12-20T18:48:38.602Z,4.86
2017-12-20T18:51:06.233Z,4.91
2017-12-20T18:53:33.859Z,4.91
2017-12-20T18:56:01.499Z,4.87
2017-12-20T18:58:29.124Z,4.86
2017-12-20T19:00:56.716Z,4.85
2017-12-20T19:03:24.344Z,4.93
2017-12-20T19:05:51.942Z,4.91
2017-12-20T19:08:19.895Z,4.96
2017-12-20T19:10:49.223Z,4.89
2017-12-20T19:13:16.896Z,4.86
2017-12-20T19:15:44.525Z,4.91
2017-12-20T19:18:12.147Z,4.90
2017-12-20T19:20:39.841Z,4.89
2017-12-20T19:23:07.721Z,4.83
2017-12-20T19:25:35.321Z,4.83
2017-12-20T19:28:03.065Z,4.79
2017-12-20T19:30:30.680Z,4.81
2017-12-20T19:32:58.304Z,4.83
2017-12-20T19:35:25.980Z,4.84
2017-12-20T19:37:53.574Z,4.91
2017-12-20T19:40:21.204Z,4.81
2017-12-20T19:42:50.263Z,4.85
2017-12-20T19:45:17.922Z,4.86
2017-12-20T19:47:45.543Z,4.91
2017-12-20T19:50:13.165Z,4.88
2017-12-20T19:52:40.781Z,4.85
2017-12-20T19:55:08.384Z,4.83
2017-12-20T19:57:36.000Z,4.82
2017-12-20T20:00:03.629Z,4.88
2017-12-20T20:02:31.231Z,4.85
2017-12-20T20:04:58.868Z,4.88
2017-12-20T20:07:26.469Z,4.83
2017-12-20T20:09:54.092Z,4.86
2017-12-20T20:12:21.676Z,4.89
2017-12-20T20:14:49.561Z,4.88
2017-12-20T20:17:17.429Z,4.94
2017-12-20T20:19:45.076Z,4.94
2017-12-20T20:22:12.793Z,4.93
2017-12-20T20:24:40.396Z,4.88
2017-12-20T20:27:08.018Z,4.90
2017-12-20T20:29:35.949Z,4.86
2017-12-20T20:32:03.586Z,4.84
2017-12-20T20:34:31.424Z,4.85
2017-12-20T20:36:59.114Z,4.90
2017-12-20T20:39:26.700Z,4.83
2017-12-20T20:41:54.338Z,4.76
2017-12-20T20:44:22.246Z,4.72
2017-12-20T20:46:50.222Z,4.76
2017-12-20T20:49:17.829Z,4.84
2017-12-20T20:51:45.695Z,4.74
2017-12-20T20:54:13.309Z,4.72
2017-12-20T20:56:40.919Z,4.79
2017-12-20T20:59:08.753Z,4.82
2017-12-20T21:01:36.707Z,4.77
2017-12-20T21:04:04.312Z,4.81
2017-12-20T21:06:32.022Z,4.84
2017-12-20T21:08:59.622Z,4.83
2017-12-20T21:11:27.553Z,4.80
2017-12-20T21:13:55.150Z,4.79
2017-12-20T21:16:22.752Z,4.72
2017-12-20T21:18:50.409Z,4.76
2017-12-20T21:21:18.049Z,4.78
2017-12-20T21:23:45.712Z,4.83
2017-12-20T21:26:13.357Z,4.81
2017-12-20T21:28:41.224Z,4.79
2017-12-20T21:31:08.867Z,4.82
2017-12-20T21:33:37.558Z,4.83
2017-12-20T21:36:05.317Z,4.82
2017-12-20T21:38:33.000Z,4.74
2017-12-20T21:41:00.619Z,4.81
2017-12-20T21:43:28.253Z,4.87
2017-12-20T21:45:55.875Z,4.89
2017-12-20T21:48:23.529Z,4.86
2017-12-20T21:50:51.127Z,4.86
2017-12-20T21:53:18.730Z,4.91
2017-12-20T21:55:46.456Z,4.98
2017-12-20T21:58:14.073Z,4.93
2017-12-20T22:00:41.704Z,4.86
2017-12-20T22:03:09.348Z,4.86
2017-12-20T22:05:36.961Z,4.87
2017-12-20T22:08:04.551Z,4.79
2017-12-20T22:10:32.192Z,4.86
2017-12-20T22:12:59.788Z,4.89
2017-12-20T22:15:27.725Z,4.89
2017-12-20T22:17:55.335Z,4.85
2017-12-20T22:20:22.965Z,4.87
2017-12-20T22:22:50.613Z,4.88
2017-12-20T22:25:18.221Z,4.89
2017-12-20T22:27:45.830Z,4.95
2017-12-20T22:30:13.798Z,4.92
2017-12-20T22:32:41.380Z,4.93
2017-12-20T22:35:09.001Z,4.95
2017-12-20T22:37:36.598Z,4.97
2017-12-20T22:40:04.203Z,4.97
2017-12-20T22:42:31.928Z,4.93
2017-12-20T22:44:59.779Z,4.98
2017-12-20T22:47:27.414Z,4.97
2017-12-20T22:49:55.304Z,5.04
2017-12-20T22:52:22.888Z,5.09
2017-12-20T22:54:50.531Z,5.14
2017-12-20T22:57:18.121Z,5.05
2017-12-20T22:59:45.767Z,5.06
2017-12-20T23:02:13.633Z,4.99
2017-12-20T23:04:41.214Z,5.06
2017-12-20T23:07:08.849Z,5.03
2017-12-20T23:09:36.443Z,5.01
2017-12-20T23:12:04.078Z,4.99
2017-12-20T23:14:31.676Z,5.04
2017-12-20T23:16:59.277Z,5.08
2017-12-20T23:19:26.893Z,5.04
2017-12-20T23:21:54.502Z,5.03
2017-12-20T23:24:22.128Z,5.03
2017-12-20T23:26:49.707Z,5.05
2017-12-20T23:29:17.307Z,5.06
2017-12-20T23:31:44.920Z,5.07
2017-12-20T23:34:12.529Z,5.09
2017-12-20T23:36:40.149Z,5.14
2017-12-20T23:39:07.793Z,5.16
2017-12-20T23:41:35.384Z,5.20
2017-12-20T23:44:03.012Z,5.22
2017-12-20T23:46:30.643Z,5.20
2017-12-20T23:48:58.306Z,5.21
2017-12-20T23:51:26.376Z,5.25
2017-12-20T23:53:53.975Z,5.32
2017-12-20T23:56:21.590Z,5.34
2017-12-20T23:58:49.171Z,5.34
